Time;durP1;ratioP1;P1;durP2;ratioP2;P2;SDS_P1;SDS_P2;PMS_P1;PMS_P2;Temp;Humidity;BMP_temperature;BMP_pressure;BME280_temperature;BME280_humidity;BME280_pressure;Samples;Min_cycle;Max_cycle;Signal;HPM_P1;HPM_P2
2023/10/23 00:02:25;;;;;;;8.10;6.20;;;9.20;1.00;;;;;;5035071;28;20675;-49
2023/10/23 00:04:51;;;;;;;6.90;6.20;;;9.20;1.00;;;;;;5034830;28;20668;-49
2023/10/23 00:07:16;;;;;;;7.60;6.37;;;9.10;99.90;;;;;;5034888;28;20225;-49
2023/10/23 00:09:42;;;;;;;7.80;7.00;;;9.10;14.50;;;;;;5034888;28;20212;-49
2023/10/23 00:12:09;;;;;;;7.80;6.73;;;9.10;1.00;;;;;;5035245;28;20179;-48
2023/10/23 00:14:35;;;;;;;11.23;6.33;;;9.10;34.20;;;;;;5034599;28;20196;-48
2023/10/23 00:17:00;;;;;;;11.67;7.00;;;9.10;4.30;;;;;;5034255;28;20428;-50
2023/10/23 00:19:27;;;;;;;8.80;7.00;;;9.10;99.90;;;;;;5034264;28;20459;-49
2023/10/23 00:21:53;;;;;;;11.40;6.77;;;9.10;99.90;;;;;;5034783;28;20186;-49
2023/10/23 00:24:19;;;;;;;12.10;7.43;;;10.20;99.90;;;;;;5034496;28;20474;-49
2023/10/23 00:26:44;;;;;;;10.00;7.77;;;9.00;99.90;;;;;;5034472;28;20465;-48
2023/10/23 00:29:10;;;;;;;11.43;8.53;;;9.00;1.00;;;;;;5034109;28;20436;-49
2023/10/23 00:31:35;;;;;;;11.23;7.23;;;8.90;1.00;;;;;;5034191;28;20182;-48
2023/10/23 00:34:01;;;;;;;11.30;7.67;;;10.10;1.00;;;;;;5034120;28;20264;-49
2023/10/23 00:36:26;;;;;;;9.10;7.60;;;10.40;1.00;;;;;;5034463;28;20233;-49
2023/10/23 00:38:52;;;;;;;10.37;7.70;;;8.70;1.00;;;;;;5034018;28;20208;-49
2023/10/23 00:41:18;;;;;;;9.57;7.00;;;8.70;1.00;;;;;;5034220;28;20225;-49
2023/10/23 00:43:43;;;;;;;8.77;7.67;;;8.70;1.00;;;;;;5034067;28;20182;-50
2023/10/23 00:46:30;;;;;;;12.30;8.00;;;8.60;25.70;;;;;;5033791;28;20340;-49
2023/10/23 00:48:57;;;;;;;13.90;8.47;;;8.60;71.60;;;;;;5033976;28;20211;-50
2023/10/23 00:51:22;;;;;;;10.57;8.10;;;8.60;99.90;;;;;;5033620;28;20473;-49
2023/10/23 00:53:48;;;;;;;11.47;8.53;;;8.60;99.90;;;;;;5033875;28;20440;-49
2023/10/23 00:56:14;;;;;;;12.37;9.27;;;8.60;99.90;;;;;;5033999;28;20208;-49
2023/10/23 00:58:42;;;;;;;9.50;8.50;;;8.60;99.90;;;;;;5034171;28;20936;-49
2023/10/23 01:01:14;;;;;;;12.23;9.30;;;8.60;99.90;;;;;;5034016;28;20182;-49
2023/10/23 01:03:40;;;;;;;10.43;8.23;;;8.60;99.90;;;;;;5033806;28;20595;-49
2023/10/23 01:06:06;;;;;;;13.33;9.30;;;8.60;99.90;;;;;;5033429;28;20465;-49
2023/10/23 01:08:33;;;;;;;10.50;9.00;;;8.60;99.90;;;;;;5034017;28;20938;-49
2023/10/23 01:10:59;;;;;;;11.77;9.20;;;8.50;99.90;;;;;;5033589;28;20552;-50
2023/10/23 01:13:26;;;;;;;12.40;9.70;;;8.50;99.90;;;;;;5033664;28;20498;-49
2023/10/23 01:15:52;;;;;;;12.00;9.70;;;8.60;99.90;;;;;;5033660;28;20420;-49
2023/10/23 01:18:18;;;;;;;11.67;9.67;;;8.50;99.90;;;;;;5033800;28;20413;-49
2023/10/23 01:20:45;;;;;;;13.10;9.13;;;8.40;99.90;;;;;;5033312;28;20817;-50
2023/10/23 01:23:11;;;;;;;13.10;8.93;;;8.50;99.90;;;;;;5033738;28;20419;-49
2023/10/23 01:25:37;;;;;;;16.80;10.03;;;8.50;99.90;;;;;;5033561;28;20463;-49
2023/10/23 01:28:03;;;;;;;12.10;9.50;;;8.50;99.90;;;;;;5033429;28;20939;-49
2023/10/23 01:30:28;;;;;;;14.77;9.87;;;8.50;99.90;;;;;;5033525;28;20448;-48
2023/10/23 01:32:54;;;;;;;16.30;10.53;;;8.50;99.90;;;;;;5033483;28;20456;-49
2023/10/23 01:35:20;;;;;;;17.27;12.10;;;8.50;99.90;;;;;;5032926;28;20231;-49
2023/10/23 01:37:47;;;;;;;19.00;11.00;;;8.50;99.90;;;;;;5033643;28;20224;-50
2023/10/23 01:40:13;;;;;;;11.73;9.97;;;8.50;99.90;;;;;;5033535;28;20196;-49
2023/10/23 01:42:42;;;;;;;18.70;11.10;;;8.50;99.90;;;;;;5032949;28;20409;-49
2023/10/23 01:45:08;;;;;;;19.77;11.00;;;8.50;99.90;;;;;;5033289;28;20905;-50
2023/10/23 01:47:34;;;;;;;16.27;11.60;;;8.60;99.90;;;;;;5033485;28;20417;-49
2023/10/23 01:49:59;;;;;;;17.67;11.43;;;8.50;99.90;;;;;;5033504;28;20430;-49
2023/10/23 01:52:25;;;;;;;17.30;11.53;;;8.50;99.90;;;;;;5033244;28;20614;-49
2023/10/23 01:54:51;;;;;;;16.40;11.97;;;8.60;99.90;;;;;;5032852;28;20182;-50
2023/10/23 01:57:16;;;;;;;13.00;10.50;;;8.50;99.90;;;;;;5033007;28;20271;-49
2023/10/23 01:59:42;;;;;;;17.70;10.50;;;8.50;99.90;;;;;;5033384;28;20439;-50
2023/10/23 02:02:08;;;;;;;17.47;11.33;;;8.60;99.90;;;;;;5032759;28;20186;-50
2023/10/23 02:04:38;;;;;;;17.00;11.77;;;8.60;99.90;;;;;;5032881;28;20193;-50
2023/10/23 02:07:04;;;;;;;16.50;11.63;;;8.60;99.90;;;;;;5033072;28;20165;-50
2023/10/23 02:09:30;;;;;;;19.10;11.20;;;8.50;99.90;;;;;;5032983;28;20579;-50
2023/10/23 02:11:56;;;;;;;18.63;11.10;;;8.50;99.90;;;;;;5033193;28;20508;-50
2023/10/23 02:14:21;;;;;;;16.07;11.10;;;8.50;99.90;;;;;;5033069;28;20186;-50
2023/10/23 02:16:47;;;;;;;16.37;11.43;;;8.50;99.90;;;;;;5041590;28;20462;-49
2023/10/23 02:19:12;;;;;;;16.10;11.70;;;8.40;99.90;;;;;;5050863;28;20200;-49
2023/10/23 02:21:38;;;;;;;17.33;11.87;;;8.40;99.90;;;;;;5052746;28;20177;-49
2023/10/23 02:24:04;;;;;;;17.77;11.00;;;8.40;99.90;;;;;;5052667;28;20750;-50
2023/10/23 02:26:30;;;;;;;15.23;11.60;;;8.40;99.90;;;;;;5052993;28;20244;-49
2023/10/23 02:28:55;;;;;;;18.83;11.80;;;8.40;99.90;;;;;;5052795;28;20455;-49
2023/10/23 02:31:22;;;;;;;17.70;12.10;;;8.40;99.90;;;;;;5052661;28;20186;-49
2023/10/23 02:33:48;;;;;;;17.77;11.80;;;8.30;99.90;;;;;;5052759;28;20237;-49
2023/10/23 02:36:15;;;;;;;20.17;12.60;;;8.30;99.90;;;;;;5052665;28;20454;-49
2023/10/23 02:38:41;;;;;;;14.67;11.20;;;8.30;99.90;;;;;;5052181;28;20458;-49
2023/10/23 02:41:06;;;;;;;21.33;12.93;;;8.30;99.90;;;;;;5052184;28;20411;-48
2023/10/23 02:43:32;;;;;;;16.93;11.67;;;8.30;99.90;;;;;;5054416;28;20439;-49
2023/10/23 02:46:01;;;;;;;18.00;11.53;;;8.30;99.90;;;;;;5056214;28;20365;-49
2023/10/23 02:48:27;;;;;;;18.70;11.60;;;8.30;99.90;;;;;;5056192;28;20185;-49
2023/10/23 02:50:56;;;;;;;16.20;12.40;;;8.30;99.90;;;;;;5055652;28;20468;-49
2023/10/23 02:53:22;;;;;;;19.73;12.60;;;8.30;99.90;;;;;;5056003;28;20526;-49
2023/10/23 02:55:49;;;;;;;16.13;11.77;;;8.20;99.90;;;;;;5056248;28;20593;-49
2023/10/23 02:58:15;;;;;;;16.23;12.30;;;8.20;99.90;;;;;;5055981;28;20628;-50
2023/10/23 03:00:42;;;;;;;20.57;12.00;;;8.20;99.90;;;;;;5056051;28;20469;-51
2023/10/23 03:03:08;;;;;;;16.80;12.07;;;8.10;99.90;;;;;;5055985;28;20443;-49
2023/10/23 03:05:34;;;;;;;23.63;12.50;;;8.20;99.90;;;;;;5055696;28;20460;-49
2023/10/23 03:07:59;;;;;;;20.70;13.23;;;8.10;99.90;;;;;;5055986;28;20416;-49
2023/10/23 03:10:26;;;;;;;20.13;13.23;;;8.10;99.90;;;;;;5055847;28;20661;-49
2023/10/23 03:12:51;;;;;;;19.20;11.90;;;8.10;99.90;;;;;;5055631;28;20720;-49
2023/10/23 03:15:17;;;;;;;20.33;13.53;;;8.10;99.90;;;;;;5055567;28;20425;-49
2023/10/23 03:17:43;;;;;;;23.00;13.40;;;8.10;99.90;;;;;;5055711;28;20182;-50
2023/10/23 03:20:09;;;;;;;17.27;13.20;;;8.10;99.90;;;;;;5055763;28;20177;-50
2023/10/23 03:22:35;;;;;;;26.23;12.90;;;8.00;99.90;;;;;;5055351;28;20509;-51
2023/10/23 03:25:00;;;;;;;19.53;12.40;;;7.90;99.90;;;;;;5055779;28;20461;-50
2023/10/23 03:27:26;;;;;;;27.70;14.10;;;8.00;99.90;;;;;;5055419;28;20264;-49
2023/10/23 03:29:51;;;;;;;20.67;12.90;;;8.00;99.90;;;;;;5055456;28;20190;-49
2023/10/23 03:32:17;;;;;;;18.73;13.03;;;8.00;99.90;;;;;;5055498;28;20179;-51
2023/10/23 03:34:43;;;;;;;24.07;13.40;;;7.90;99.90;;;;;;5055439;28;20189;-50
2023/10/23 03:37:08;;;;;;;22.00;13.43;;;7.90;99.90;;;;;;5054946;28;20174;-49
2023/10/23 03:39:34;;;;;;;21.73;13.63;;;7.80;99.90;;;;;;5055334;28;20190;-49
2023/10/23 03:41:59;;;;;;;23.73;13.90;;;7.80;99.90;;;;;;5055309;28;20183;-49
2023/10/23 03:44:25;;;;;;;30.30;14.80;;;7.80;99.90;;;;;;5054941;28;20181;-49
2023/10/23 03:46:50;;;;;;;22.17;14.03;;;7.80;99.90;;;;;;5055108;28;20208;-49
2023/10/23 03:49:16;;;;;;;26.57;14.40;;;7.80;99.90;;;;;;5055194;28;20517;-50
2023/10/23 03:51:41;;;;;;;23.20;14.20;;;7.80;99.90;;;;;;5054922;28;20663;-50
2023/10/23 03:54:07;;;;;;;18.63;13.03;;;7.70;99.90;;;;;;5054536;28;20592;-50
2023/10/23 03:56:33;;;;;;;20.53;14.03;;;7.70;99.90;;;;;;5054405;28;20211;-50
2023/10/23 03:59:00;;;;;;;21.70;13.97;;;7.60;99.90;;;;;;5055101;28;20177;-51
2023/10/23 04:01:26;;;;;;;26.30;14.90;;;7.60;99.90;;;;;;5054708;28;20434;-50
2023/10/23 04:03:52;;;;;;;23.10;15.63;;;7.60;99.90;;;;;;5054754;28;20411;-50
2023/10/23 04:06:18;;;;;;;22.87;15.13;;;7.60;99.90;;;;;;5054596;28;20251;-50
2023/10/23 04:08:43;;;;;;;24.87;15.10;;;7.70;99.90;;;;;;5054838;28;20462;-51
2023/10/23 04:11:13;;;;;;;22.13;14.40;;;7.70;99.90;;;;;;5054565;28;20181;-50
2023/10/23 04:13:38;;;;;;;24.23;15.00;;;7.70;99.90;;;;;;5054668;28;20704;-50
2023/10/23 04:16:04;;;;;;;23.03;15.23;;;7.60;99.90;;;;;;5054253;28;20419;-50
2023/10/23 04:18:29;;;;;;;23.40;15.20;;;7.70;99.90;;;;;;5054962;28;20267;-50
2023/10/23 04:21:10;;;;;;;24.70;16.20;;;7.70;99.90;;;;;;5054617;28;20179;-50
2023/10/23 04:23:37;;;;;;;21.73;15.17;;;7.70;99.90;;;;;;5054354;28;20186;-50
2023/10/23 04:26:03;;;;;;;23.47;14.90;;;7.70;99.90;;;;;;5054538;28;20936;-50
2023/10/23 04:28:30;;;;;;;24.67;16.07;;;7.60;99.90;;;;;;5054520;28;20416;-50
2023/10/23 04:30:55;;;;;;;29.53;15.67;;;7.60;99.90;;;;;;5054622;28;20416;-50
2023/10/23 04:33:22;;;;;;;24.77;15.60;;;7.60;99.90;;;;;;5054681;28;20960;-50
2023/10/23 04:35:52;;;;;;;25.60;17.13;;;7.60;99.90;;;;;;5054251;28;20216;-50
2023/10/23 04:38:18;;;;;;;26.57;15.73;;;7.60;99.90;;;;;;5053843;28;21003;-50
2023/10/23 04:40:44;;;;;;;25.80;17.20;;;7.60;99.90;;;;;;5054136;28;20519;-50
2023/10/23 04:43:13;;;;;;;27.57;17.17;;;7.60;99.90;;;;;;5053925;28;20614;-50
2023/10/23 04:45:39;;;;;;;25.17;14.80;;;7.60;99.90;;;;;;5053725;28;20475;-50
2023/10/23 04:48:06;;;;;;;24.50;16.07;;;7.60;99.90;;;;;;5053858;28;20446;-50
2023/10/23 04:50:32;;;;;;;26.17;16.43;;;7.60;99.90;;;;;;5053683;28;20529;-51
2023/10/23 04:52:59;;;;;;;26.17;16.60;;;7.60;99.90;;;;;;5053844;28;20885;-50
2023/10/23 04:55:25;;;;;;;25.27;15.30;;;7.50;99.90;;;;;;5053903;28;20416;-50
2023/10/23 04:57:50;;;;;;;24.53;16.43;;;7.50;99.90;;;;;;5053903;28;20426;-50
2023/10/23 05:00:19;;;;;;;26.37;15.90;;;7.50;99.90;;;;;;5053752;28;20424;-50
2023/10/23 05:02:45;;;;;;;30.10;16.67;;;7.50;99.90;;;;;;5053580;28;20191;-51
2023/10/23 05:05:11;;;;;;;23.47;14.97;;;7.50;99.90;;;;;;5053504;28;20613;-50
2023/10/23 05:07:37;;;;;;;27.90;16.13;;;7.50;99.90;;;;;;5053653;28;20921;-50
2023/10/23 05:10:04;;;;;;;25.53;15.73;;;7.50;99.90;;;;;;5053493;28;20181;-50
2023/10/23 05:12:29;;;;;;;24.63;15.33;;;7.50;99.90;;;;;;5053957;28;20235;-50
2023/10/23 05:14:55;;;;;;;25.83;16.27;;;7.40;99.90;;;;;;5053218;28;20896;-50
2023/10/23 05:17:21;;;;;;;25.47;15.57;;;7.40;99.90;;;;;;5053618;28;20192;-50
2023/10/23 05:19:47;;;;;;;25.43;15.90;;;7.40;99.90;;;;;;5053570;28;20172;-50
2023/10/23 05:22:13;;;;;;;24.87;15.50;;;7.40;99.90;;;;;;5053463;28;20435;-50
2023/10/23 05:24:38;;;;;;;28.23;17.17;;;7.40;99.90;;;;;;5053858;28;20205;-50
2023/10/23 05:27:04;;;;;;;32.07;16.60;;;7.40;99.90;;;;;;5053097;28;20231;-50
2023/10/23 05:29:29;;;;;;;29.40;16.47;;;7.40;99.90;;;;;;5053192;28;20183;-50
2023/10/23 05:31:55;;;;;;;33.30;16.00;;;7.30;99.90;;;;;;5053088;28;20281;-50
2023/10/23 05:34:20;;;;;;;29.10;15.60;;;7.40;99.90;;;;;;5053494;28;20226;-50
2023/10/23 05:36:47;;;;;;;23.43;14.93;;;7.40;99.90;;;;;;5053202;28;20210;-50
2023/10/23 05:39:13;;;;;;;31.97;17.40;;;7.30;99.90;;;;;;5053258;28;20196;-50
2023/10/23 05:41:38;;;;;;;29.33;16.20;;;7.30;99.90;;;;;;5053444;28;20424;-50
2023/10/23 05:44:04;;;;;;;25.80;16.30;;;7.30;99.90;;;;;;5053240;28;20245;-50
2023/10/23 05:46:30;;;;;;;26.07;16.50;;;7.40;99.90;;;;;;5052994;28;20212;-50
2023/10/23 05:48:55;;;;;;;33.40;17.67;;;7.30;99.90;;;;;;5053375;28;20181;-50
2023/10/23 05:51:21;;;;;;;26.20;16.07;;;7.30;99.90;;;;;;5052822;28;20751;-50
2023/10/23 05:53:47;;;;;;;28.87;16.67;;;7.40;99.90;;;;;;5053269;28;20184;-50
2023/10/23 05:56:12;;;;;;;29.00;17.20;;;7.30;99.90;;;;;;5053176;28;20938;-50
2023/10/23 05:58:38;;;;;;;29.10;17.23;;;7.40;99.90;;;;;;5053085;28;20189;-50
2023/10/23 06:01:07;;;;;;;29.53;16.47;;;7.40;99.90;;;;;;5052886;28;20260;-50
2023/10/23 06:03:33;;;;;;;33.80;17.67;;;7.30;99.90;;;;;;5053020;28;20193;-50
2023/10/23 06:05:59;;;;;;;32.47;17.63;;;7.40;99.90;;;;;;5052587;28;20532;-51
2023/10/23 06:08:25;;;;;;;32.10;16.47;;;7.30;99.90;;;;;;5053109;28;20782;-50
2023/10/23 06:10:51;;;;;;;28.10;16.97;;;7.30;99.90;;;;;;5053035;28;20548;-50
2023/10/23 06:13:17;;;;;;;32.53;18.70;;;7.30;99.90;;;;;;5052583;28;20415;-51
2023/10/23 06:15:43;;;;;;;34.83;16.80;;;7.40;99.90;;;;;;5053117;28;20422;-50
2023/10/23 06:18:08;;;;;;;28.00;16.47;;;7.40;99.90;;;;;;5053924;28;20650;-50
2023/10/23 06:20:34;;;;;;;30.07;17.10;;;7.40;99.90;;;;;;5056546;28;20193;-50
2023/10/23 06:23:00;;;;;;;31.47;16.97;;;7.40;99.90;;;;;;5056449;28;20208;-50
2023/10/23 06:25:26;;;;;;;31.87;17.50;;;7.50;99.90;;;;;;5056434;28;20214;-50
2023/10/23 06:27:52;;;;;;;34.23;18.23;;;7.50;99.90;;;;;;5056652;28;20416;-50
2023/10/23 06:30:19;;;;;;;31.27;17.00;;;7.50;99.90;;;;;;5056597;28;20908;-50
2023/10/23 06:32:44;;;;;;;28.10;16.90;;;7.60;99.90;;;;;;5056247;28;20415;-50
2023/10/23 06:35:10;;;;;;;32.80;17.37;;;7.50;99.90;;;;;;5056245;28;20467;-50
2023/10/23 06:37:35;;;;;;;34.83;19.17;;;7.60;99.90;;;;;;5056357;28;20236;-51
2023/10/23 06:40:01;;;;;;;36.97;18.70;;;7.60;99.90;;;;;;5056435;28;20172;-50
2023/10/23 06:42:26;;;;;;;32.17;16.87;;;7.70;99.90;;;;;;5056201;28;20691;-50
2023/10/23 06:44:52;;;;;;;32.47;17.57;;;7.70;99.90;;;;;;5055935;28;20189;-51
2023/10/23 06:47:18;;;;;;;29.60;17.77;;;7.70;99.90;;;;;;5056443;28;20268;-50
2023/10/23 06:49:46;;;;;;;32.70;18.20;;;7.70;99.90;;;;;;5056208;28;20281;-50
2023/10/23 06:52:13;;;;;;;33.77;17.97;;;7.70;99.90;;;;;;5055728;28;20711;-51
2023/10/23 06:54:39;;;;;;;38.87;18.60;;;7.80;99.90;;;;;;5056103;28;20481;-50
2023/10/23 06:57:08;;;;;;;28.27;17.20;;;7.70;99.90;;;;;;5056555;28;20818;-50
2023/10/23 06:59:34;;;;;;;27.87;17.00;;;7.80;99.90;;;;;;5056359;28;20196;-50
2023/10/23 07:02:00;;;;;;;32.00;17.40;;;7.80;99.90;;;;;;5055836;28;20420;-50
2023/10/23 07:04:27;;;;;;;30.20;18.00;;;7.80;99.90;;;;;;5056329;28;20430;-50
2023/10/23 07:06:53;;;;;;;29.93;17.07;;;7.80;99.90;;;;;;5055850;28;20469;-50
2023/10/23 07:09:19;;;;;;;29.40;17.00;;;7.90;99.90;;;;;;5056142;28;20425;-50
2023/10/23 07:11:48;;;;;;;27.47;16.70;;;7.90;99.90;;;;;;5055840;28;20412;-50
2023/10/23 07:14:14;;;;;;;27.40;15.87;;;7.90;99.90;;;;;;5055179;28;20188;-52
2023/10/23 07:16:40;;;;;;;31.17;17.67;;;7.90;99.90;;;;;;5055682;28;20495;-51
2023/10/23 07:19:05;;;;;;;29.57;16.20;;;7.90;99.90;;;;;;5055721;28;20863;-51
2023/10/23 07:21:31;;;;;;;31.20;14.97;;;8.00;99.90;;;;;;5055717;28;20609;-50
2023/10/23 07:23:57;;;;;;;26.17;15.27;;;8.00;99.90;;;;;;5055565;28;20268;-50
2023/10/23 07:26:23;;;;;;;31.50;17.00;;;8.00;99.90;;;;;;5055367;28;20559;-50
2023/10/23 07:28:48;;;;;;;31.93;16.87;;;8.10;99.90;;;;;;5054972;28;20182;-49
2023/10/23 07:31:14;;;;;;;25.33;15.47;;;8.20;99.90;;;;;;5055554;28;20185;-49
2023/10/23 07:33:40;;;;;;;25.00;15.80;;;8.30;99.90;;;;;;5055316;28;20208;-49
2023/10/23 07:36:13;;;;;;;29.57;15.17;;;8.40;99.90;;;;;;5055548;28;20592;-49
2023/10/23 07:38:41;;;;;;;29.73;15.30;;;8.50;99.90;;;;;;5055367;28;20592;-49
2023/10/23 07:41:07;;;;;;;23.67;14.40;;;8.50;99.90;;;;;;5055014;28;20419;-49
2023/10/23 07:43:33;;;;;;;27.73;15.60;;;8.60;99.90;;;;;;5055152;28;20423;-49
2023/10/23 07:46:06;;;;;;;28.20;15.27;;;8.90;99.90;;;;;;5055091;28;20468;-49
2023/10/23 07:48:32;;;;;;;23.57;14.73;;;8.90;99.90;;;;;;5055045;28;20181;-49
2023/10/23 07:50:59;;;;;;;21.83;13.70;;;9.20;99.90;;;;;;5054740;28;20483;-49
2023/10/23 07:53:25;;;;;;;17.30;11.50;;;10.20;99.90;;;;;;5055413;28;20220;-49
2023/10/23 07:55:51;;;;;;;15.23;10.33;;;11.50;99.90;;;;;;5054727;28;20431;-49
2023/10/23 07:58:17;;;;;;;12.67;8.43;;;12.80;1.00;;;;;;5054655;28;20419;-49
2023/10/23 08:00:43;;;;;;;12.53;9.00;;;13.70;1.00;;;;;;5055208;28;20192;-48
2023/10/23 08:03:09;;;;;;;16.00;8.63;;;13.80;55.90;;;;;;5054264;28;20666;-47
2023/10/23 08:05:34;;;;;;;13.27;9.00;;;13.20;1.00;;;;;;5054907;28;20465;-48
2023/10/23 08:08:00;;;;;;;13.63;9.83;;;12.60;1.00;;;;;;5054824;28;20427;-48
2023/10/23 08:10:26;;;;;;;17.73;9.80;;;12.60;26.40;;;;;;5054559;28;20179;-48
2023/10/23 08:12:52;;;;;;;10.70;8.10;;;13.20;14.30;;;;;;5054874;28;20451;-48
2023/10/23 08:15:17;;;;;;;15.50;8.77;;;13.60;1.00;;;;;;5054614;28;20201;-50
2023/10/23 08:17:43;;;;;;;13.20;8.40;;;13.30;1.00;;;;;;5054600;28;20237;-49
2023/10/23 08:20:09;;;;;;;14.97;10.27;;;12.60;1.00;;;;;;5054780;28;20182;-49
2023/10/23 08:22:35;;;;;;;12.57;8.53;;;12.20;1.00;;;;;;5054130;28;20178;-48
2023/10/23 08:25:01;;;;;;;12.60;8.50;;;12.00;1.00;;;;;;5054493;28;20243;-48
2023/10/23 08:27:26;;;;;;;14.13;9.47;;;11.60;1.00;;;;;;5054269;28;20425;-47
2023/10/23 08:29:52;;;;;;;11.33;8.83;;;11.30;34.40;;;;;;5054325;28;20181;-47
2023/10/23 08:32:17;;;;;;;18.10;9.60;;;11.00;91.40;;;;;;5054312;28;20578;-47
2023/10/23 08:34:43;;;;;;;22.40;9.07;;;10.70;99.90;;;;;;5054580;28;20620;-47
2023/10/23 08:37:08;;;;;;;15.10;10.10;;;10.40;99.90;;;;;;5054425;28;20212;-48
2023/10/23 08:39:34;;;;;;;12.17;9.20;;;10.30;1.00;;;;;;5054455;28;20182;-48
2023/10/23 08:42:03;;;;;;;13.70;9.10;;;10.20;1.00;;;;;;5053494;28;20691;-47
2023/10/23 08:44:29;;;;;;;15.43;9.60;;;10.20;1.00;;;;;;5053824;28;20188;-49
2023/10/23 08:46:55;;;;;;;15.90;9.77;;;10.20;1.00;;;;;;5053907;28;20467;-48
2023/10/23 08:49:20;;;;;;;13.90;9.33;;;10.20;39.30;;;;;;5054064;28;20471;-48
2023/10/23 08:51:50;;;;;;;14.60;9.73;;;10.30;99.90;;;;;;5053781;28;20238;-47
2023/10/23 08:54:20;;;;;;;14.47;9.90;;;10.30;99.90;;;;;;5053787;28;20186;-48
2023/10/23 08:56:53;;;;;;;14.70;8.97;;;10.60;26.80;;;;;;5054151;28;20447;-48
2023/10/23 08:59:18;;;;;;;10.77;7.50;;;10.40;1.00;;;;;;5053776;28;20413;-48
2023/10/23 09:01:44;;;;;;;10.37;7.30;;;10.30;1.00;;;;;;5053516;28;20425;-48
2023/10/23 09:04:11;;;;;;;11.57;7.83;;;10.30;1.00;;;;;;5053638;28;20710;-48
2023/10/23 09:06:36;;;;;;;13.80;8.60;;;10.30;1.00;;;;;;5053602;28;20563;-48
2023/10/23 09:09:04;;;;;;;13.33;7.60;;;10.30;1.00;;;;;;5053991;28;20440;-48
2023/10/23 09:11:47;;;;;;;12.30;7.60;;;10.30;21.40;;;;;;5053689;28;20185;-48
2023/10/23 09:14:31;;;;;;;10.30;7.00;;;10.30;46.00;;;;;;5053540;28;20917;-48
2023/10/23 09:16:59;;;;;;;8.70;6.57;;;10.40;10.50;;;;;;5053484;28;20440;-48
2023/10/23 09:19:25;;;;;;;9.73;6.70;;;10.50;1.00;;;;;;5053785;28;20432;-49
2023/10/23 09:21:56;;;;;;;9.70;6.80;;;10.50;1.00;;;;;;5053753;28;20421;-48
2023/10/23 09:24:22;;;;;;;11.13;6.23;;;10.70;1.00;;;;;;5053493;28;20424;-48
2023/10/23 09:26:50;;;;;;;13.13;6.90;;;10.80;1.00;;;;;;5053335;28;20464;-48
2023/10/23 09:29:20;;;;;;;12.53;6.20;;;10.90;1.00;;;;;;5053667;28;20424;-48
2023/10/23 09:31:45;;;;;;;10.60;6.40;;;11.60;1.00;;;;;;5053616;28;20891;-48
2023/10/23 09:34:12;;;;;;;10.50;6.50;;;11.20;99.90;;;;;;5053382;28;20428;-48
2023/10/23 09:36:38;;;;;;;8.50;5.57;;;11.40;99.90;;;;;;5053360;28;20194;-48
2023/10/23 09:39:04;;;;;;;9.23;6.10;;;11.50;99.90;;;;;;5053077;28;20474;-49
2023/10/23 09:41:30;;;;;;;6.70;5.30;;;11.60;99.90;;;;;;5053299;28;20408;-48
2023/10/23 09:43:57;;;;;;;5.53;4.83;;;12.10;99.90;;;;;;5053504;28;20424;-48
2023/10/23 09:46:27;;;;;;;7.80;4.80;;;11.50;99.90;;;;;;5052925;28;20550;-49
2023/10/23 09:48:55;;;;;;;7.30;4.90;;;11.50;99.90;;;;;;5053053;28;20913;-48
2023/10/23 09:51:27;;;;;;;9.30;4.90;;;11.60;99.90;;;;;;5053113;28;20559;-48
2023/10/23 09:54:03;;;;;;;8.20;5.50;;;11.80;99.90;;;;;;5055868;28;20409;-48
2023/10/23 09:56:31;;;;;;;6.37;4.90;;;12.00;99.90;;;;;;5057549;28;20393;-48
2023/10/23 09:59:00;;;;;;;10.87;5.97;;;12.20;90.70;;;;;;5054247;28;20483;-48
2023/10/23 10:01:49;;;;;;;7.00;4.30;;;12.50;72.50;;;;;;5050905;28;20441;-52
2023/10/23 10:04:29;;;;;;;7.20;5.00;;;12.80;33.50;;;;;;5047525;28;20431;-49
2023/10/23 10:07:11;;;;;;;6.10;4.50;;;13.00;8.90;;;;;;5048531;28;20498;-48
2023/10/23 10:09:38;;;;;;;7.80;4.27;;;13.30;1.00;;;;;;5051643;28;20944;-48
2023/10/23 10:12:04;;;;;;;7.43;4.80;;;13.40;1.00;;;;;;5048790;28;20446;-49
2023/10/23 10:14:31;;;;;;;7.63;4.67;;;13.60;1.00;;;;;;5035179;28;20840;-49
2023/10/23 10:16:57;;;;;;;8.17;5.20;;;13.90;1.00;;;;;;5050880;28;20473;-49
2023/10/23 10:19:27;;;;;;;5.10;3.77;;;14.40;1.00;;;;;;5049805;28;20435;-49
2023/10/23 10:22:08;;;;;;;9.43;4.40;;;14.80;1.00;;;;;;5051010;28;20448;-49
2023/10/23 10:24:35;;;;;;;7.27;4.07;;;15.10;1.00;;;;;;5051170;28;20943;-48
2023/10/23 10:27:03;;;;;;;4.77;3.83;;;16.20;1.00;;;;;;5049540;28;20463;-48
2023/10/23 10:29:30;;;;;;;10.73;4.27;;;17.80;1.00;;;;;;5047251;28;20471;-49
2023/10/23 10:32:05;;;;;;;7.53;3.53;;;19.10;1.00;;;;;;5050762;28;20449;-48
2023/10/23 10:34:34;;;;;;;7.90;4.00;;;19.90;1.00;;;;;;5049716;28;20448;-49
2023/10/23 10:37:01;;;;;;;8.97;4.13;;;20.70;1.00;;;;;;5051319;28;20437;-48
2023/10/23 10:39:50;;;;;;;11.90;4.00;;;21.70;1.00;;;;;;5049400;28;20432;-49
2023/10/23 10:42:19;;;;;;;10.60;3.87;;;22.50;1.00;;;;;;5049277;28;20441;-48
2023/10/23 10:45:15;;;;;;;5.20;3.50;;;23.50;1.00;;;;;;5049656;28;20582;-48
2023/10/23 10:47:48;;;;;;;5.57;3.73;;;23.80;1.00;;;;;;5040621;28;20515;-47
2023/10/23 10:50:38;;;;;;;4.70;3.57;;;24.10;1.00;;;;;;5050731;28;20456;-49
2023/10/23 10:53:07;;;;;;;11.40;3.67;;;24.60;1.00;;;;;;5049400;28;20429;-49
2023/10/23 10:55:35;;;;;;;4.27;3.20;;;25.10;1.00;;;;;;5048840;28;20468;-50
2023/10/23 10:58:02;;;;;;;8.20;3.60;;;25.50;1.00;;;;;;5050559;28;20448;-48
2023/10/23 11:00:33;;;;;;;5.70;4.10;;;25.80;1.00;;;;;;5050751;28;20437;-49
2023/10/23 11:02:59;;;;;;;5.23;3.03;;;26.10;1.00;;;;;;5048764;28;21009;-49
2023/10/23 11:05:25;;;;;;;6.00;4.07;;;26.30;1.00;;;;;;5045688;28;20469;-50
2023/10/23 11:07:51;;;;;;;4.30;3.53;;;26.30;1.00;;;;;;5050092;28;20275;-49
2023/10/23 11:10:18;;;;;;;4.83;3.63;;;26.10;99.90;;;;;;5050478;28;20551;-49
2023/10/23 11:12:43;;;;;;;4.57;3.20;;;26.00;1.00;;;;;;5048413;28;20779;-48
2023/10/23 11:15:09;;;;;;;3.30;2.87;;;26.00;99.90;;;;;;5050214;28;20511;-52
2023/10/23 11:17:36;;;;;;;5.60;3.40;;;25.50;1.00;;;;;;5046293;28;20266;-48
2023/10/23 11:20:09;;;;;;;11.63;3.60;;;25.60;1.00;;;;;;5044893;28;20969;-49
2023/10/23 11:22:36;;;;;;;3.80;3.50;;;25.60;99.90;;;;;;5048209;28;20435;-49
2023/10/23 11:25:06;;;;;;;7.70;3.23;;;25.30;99.90;;;;;;5046039;28;20429;-48
2023/10/23 11:27:31;;;;;;;8.43;3.10;;;25.30;99.90;;;;;;5047744;28;21029;-49
2023/10/23 11:29:57;;;;;;;5.23;2.90;;;25.00;99.90;;;;;;5049165;28;20528;-49
2023/10/23 11:32:23;;;;;;;2.83;2.47;;;25.10;99.90;;;;;;5049083;28;20218;-50
2023/10/23 11:34:48;;;;;;;5.77;2.80;;;25.80;99.90;;;;;;5046898;28;20222;-50
2023/10/23 11:37:14;;;;;;;4.87;2.80;;;26.10;99.90;;;;;;5046924;28;20209;-50
2023/10/23 11:39:42;;;;;;;6.53;2.67;;;26.40;99.90;;;;;;5050257;28;20547;-49
2023/10/23 11:42:07;;;;;;;4.90;2.83;;;26.90;99.90;;;;;;5053768;28;20190;-50
2023/10/23 11:44:34;;;;;;;4.53;3.53;;;27.30;99.90;;;;;;5055309;28;20425;-49
2023/10/23 11:47:04;;;;;;;3.30;2.93;;;27.30;99.90;;;;;;5053641;28;20264;-49
2023/10/23 11:49:30;;;;;;;4.40;2.90;;;27.40;99.90;;;;;;5037132;28;20483;-48
2023/10/23 11:51:56;;;;;;;4.40;2.93;;;27.60;99.90;;;;;;5053920;28;20504;-50
2023/10/23 11:54:26;;;;;;;5.30;3.93;;;27.40;99.90;;;;;;5055038;28;20413;-49
2023/10/23 11:56:55;;;;;;;5.57;3.83;;;27.40;99.90;;;;;;5055402;28;20187;-49
2023/10/23 11:59:21;;;;;;;4.20;3.33;;;26.90;99.90;;;;;;5054773;28;20475;-48
2023/10/23 12:01:49;;;;;;;6.70;3.40;;;26.60;99.90;;;;;;5054994;28;20413;-50
2023/10/23 12:04:15;;;;;;;7.00;4.47;;;26.50;99.90;;;;;;5055054;28;20891;-49
2023/10/23 12:06:41;;;;;;;4.20;3.40;;;26.20;99.90;;;;;;5054712;28;20473;-50
2023/10/23 12:09:09;;;;;;;4.77;2.80;;;26.40;99.90;;;;;;5055418;28;20427;-50
2023/10/23 12:11:35;;;;;;;7.37;4.70;;;26.70;99.90;;;;;;5055250;28;20440;-49
2023/10/23 12:14:02;;;;;;;5.40;3.47;;;26.70;99.90;;;;;;5054564;28;20428;-49
2023/10/23 12:16:28;;;;;;;3.67;3.13;;;26.30;99.90;;;;;;5053547;28;20907;-50
2023/10/23 12:18:55;;;;;;;7.80;4.60;;;26.40;99.90;;;;;;5054482;28;20410;-50
2023/10/23 12:21:20;;;;;;;9.33;5.33;;;26.30;99.90;;;;;;5054417;28;20463;-47
2023/10/23 12:23:46;;;;;;;9.70;4.00;;;26.40;99.90;;;;;;5054348;28;20421;-49
2023/10/23 12:26:12;;;;;;;5.87;4.03;;;26.20;99.90;;;;;;5054683;28;20215;-49
2023/10/23 12:28:38;;;;;;;14.03;6.00;;;26.20;99.90;;;;;;5054477;28;20183;-49
2023/10/23 12:31:04;;;;;;;10.83;4.10;;;26.40;99.90;;;;;;5054369;28;20512;-49
2023/10/23 12:33:33;;;;;;;4.03;3.63;;;26.20;99.90;;;;;;5054288;28;20516;-49
2023/10/23 12:36:03;;;;;;;7.40;3.90;;;26.20;99.90;;;;;;5053919;28;20179;-49
2023/10/23 12:38:30;;;;;;;8.40;4.73;;;25.80;99.90;;;;;;5051530;28;20453;-49
2023/10/23 12:40:57;;;;;;;5.43;4.27;;;24.70;99.90;;;;;;5049637;28;20452;-49
2023/10/23 12:43:22;;;;;;;19.07;8.70;;;24.00;99.90;;;;;;5053782;28;20925;-51